createdAt,value
2023-02-17T00:01:42.914Z,52.13
2023-02-17T00:07:36.526Z,51.17
2023-02-17T00:16:01.608Z,55.75
2023-02-17T00:19:37.156Z,55.72
2023-02-17T00:23:09.449Z,59.42
2023-02-17T00:25:53.271Z,50.88
2023-02-17T00:28:47.398Z,56.63
2023-02-17T00:31:39.591Z,52.38
2023-02-17T00:34:37.716Z,53.88
2023-02-17T00:38:18.428Z,47.72
2023-02-17T00:41:06.215Z,52.63
2023-02-17T00:46:32.418Z,55.87
2023-02-17T00:53:08.818Z,50.40
2023-02-17T00:59:01.579Z,52.03
2023-02-17T01:01:41.954Z,55.88
2023-02-17T01:04:30.422Z,52.83
2023-02-17T01:07:11.941Z,50.67
2023-02-17T01:10:10.610Z,48.70
2023-02-17T01:19:09.409Z,46.45
2023-02-17T01:22:26.350Z,48.93
2023-02-17T01:25:18.436Z,45.33
2023-02-17T01:27:47.222Z,48.38
2023-02-17T01:30:14.557Z,49.45
2023-02-17T01:32:54.310Z,46.53
2023-02-17T01:35:23.021Z,41.28
2023-02-17T01:38:16.356Z,49.22
2023-02-17T01:40:57.568Z,45.63
2023-02-17T01:43:24.676Z,45.97
2023-02-17T01:45:55.556Z,44.20
2023-02-17T01:49:03.606Z,46.63
2023-02-17T01:51:50.036Z,45.17
2023-02-17T02:01:15.396Z,42.95
2023-02-17T02:07:31.470Z,43.25
2023-02-17T02:10:59.009Z,40.60
2023-02-17T02:20:11.042Z,42.03
2023-02-17T02:23:55.623Z,35.00
2023-02-17T02:30:26.988Z,37.00
2023-02-17T02:36:50.936Z,42.78
2023-02-17T02:40:39.603Z,41.30
2023-02-17T02:43:45.372Z,36.80
2023-02-17T02:57:06.732Z,40.65
2023-02-17T03:00:01.932Z,39.50
2023-02-17T03:03:21.885Z,40.00
2023-02-17T03:06:18.509Z,37.95
2023-02-17T03:09:12.202Z,41.60
2023-02-17T03:15:53.640Z,36.92
2023-02-17T03:25:14.439Z,37.47
2023-02-17T03:27:46.888Z,37.65
2023-02-17T03:30:23.535Z,36.75
2023-02-17T03:33:42.635Z,36.13
2023-02-17T03:36:42.509Z,37.40
2023-02-17T03:39:49.045Z,38.55
2023-02-17T03:42:32.243Z,34.35
2023-02-17T03:56:29.863Z,33.67
2023-02-17T03:59:51.878Z,32.35
2023-02-17T04:02:41.123Z,37.15
2023-02-17T04:05:24.319Z,34.80
2023-02-17T04:07:52.768Z,33.70
2023-02-17T04:10:19.843Z,31.70
2023-02-17T04:12:46.740Z,34.45
2023-02-17T04:15:33.569Z,36.47
2023-02-17T04:18:35.451Z,35.83
2023-02-17T04:21:36.475Z,37.90
2023-02-17T04:24:05.812Z,56.40
2023-02-17T04:26:32.969Z,44.90
2023-02-17T04:28:59.955Z,38.50
2023-02-17T04:31:47.605Z,41.20
2023-02-17T04:34:28.097Z,40.00
2023-02-17T04:37:17.557Z,38.67
2023-02-17T04:40:19.496Z,37.80
2023-02-17T04:43:00.150Z,36.55
2023-02-17T04:45:27.058Z,35.63
2023-02-17T04:47:54.211Z,34.00
2023-02-17T04:50:41.465Z,38.53
2023-02-17T04:53:22.097Z,30.52
2023-02-17T04:55:50.777Z,33.80
2023-02-17T04:58:17.955Z,37.58
2023-02-17T05:00:47.678Z,34.78
2023-02-17T05:03:15.003Z,36.78
2023-02-17T05:05:42.148Z,35.92
2023-02-17T05:08:09.040Z,34.53
2023-02-17T05:10:36.062Z,33.10
2023-02-17T05:13:03.110Z,36.95
2023-02-17T05:15:30.040Z,35.13
2023-02-17T05:18:18.546Z,38.00
2023-02-17T05:21:19.534Z,33.42
2023-02-17T05:24:20.506Z,31.70
2023-02-17T05:27:01.096Z,35.97
2023-02-17T05:29:28.009Z,34.03
2023-02-17T05:31:55.171Z,35.03
2023-02-17T05:34:22.110Z,31.17
2023-02-17T05:37:11.571Z,34.65
2023-02-17T05:39:52.057Z,30.77
2023-02-17T05:42:19.077Z,37.58
2023-02-17T05:44:46.105Z,33.40
2023-02-17T05:47:13.086Z,35.53
2023-02-17T05:49:40.112Z,31.33
2023-02-17T05:52:07.046Z,32.90
2023-02-17T05:54:34.017Z,29.63
2023-02-17T05:57:21.530Z,32.00
2023-02-17T06:00:02.416Z,31.65
2023-02-17T06:02:39.270Z,30.08
2023-02-17T06:05:06.735Z,26.48
2023-02-17T06:07:33.868Z,26.00
2023-02-17T06:10:21.569Z,30.85
2023-02-17T06:13:02.349Z,30.02
2023-02-17T06:15:30.517Z,31.52
2023-02-17T06:18:18.537Z,25.30
2023-02-17T06:20:59.694Z,28.55
2023-02-17T06:23:27.738Z,32.47
2023-02-17T06:25:55.107Z,31.45
2023-02-17T06:28:22.125Z,28.67
2023-02-17T06:30:49.129Z,26.42
2023-02-17T06:33:16.148Z,29.98
2023-02-17T06:35:44.641Z,31.45
2023-02-17T06:38:32.526Z,29.88
2023-02-17T06:41:33.524Z,32.38
2023-02-17T06:44:14.334Z,33.47
2023-02-17T06:47:01.528Z,30.33
2023-02-17T06:49:44.062Z,29.40
2023-02-17T06:52:31.519Z,26.77
2023-02-17T06:55:32.576Z,28.30
2023-02-17T06:58:33.545Z,29.20
2023-02-17T07:01:19.100Z,28.23
2023-02-17T07:03:46.723Z,27.75
2023-02-17T07:06:33.582Z,28.63
2023-02-17T07:09:15.066Z,30.90
2023-02-17T07:11:44.499Z,27.15
2023-02-17T07:14:11.936Z,28.70
2023-02-17T07:16:58.573Z,27.23
2023-02-17T07:19:59.593Z,23.55
2023-02-17T07:22:40.545Z,25.10
2023-02-17T07:25:08.178Z,23.02
2023-02-17T07:27:36.849Z,22.00
2023-02-17T07:30:05.321Z,26.10
2023-02-17T07:32:52.573Z,27.63
2023-02-17T07:35:33.471Z,25.30
2023-02-17T07:38:20.617Z,28.75
2023-02-17T07:41:23.577Z,28.58
2023-02-17T07:44:04.723Z,26.02
2023-02-17T07:46:52.554Z,24.80
2023-02-17T07:49:33.120Z,27.65
2023-02-17T07:52:20.609Z,29.80
2023-02-17T07:55:14.177Z,27.95
2023-02-17T07:57:41.124Z,29.70
2023-02-17T08:00:10.837Z,28.35
2023-02-17T08:03:00.614Z,28.05
2023-02-17T08:06:01.651Z,21.65
2023-02-17T08:09:19.535Z,25.92
2023-02-17T08:12:40.229Z,22.42
2023-02-17T08:15:11.591Z,19.23
2023-02-17T08:17:59.639Z,22.10
2023-02-17T08:21:00.561Z,21.92
2023-02-17T08:23:41.172Z,21.58
2023-02-17T08:26:08.639Z,22.58
2023-02-17T08:28:36.168Z,21.98
2023-02-17T08:31:03.561Z,23.00
2023-02-17T08:33:30.800Z,21.00
2023-02-17T08:36:20.647Z,21.85
2023-02-17T08:39:27.620Z,22.10
2023-02-17T08:42:08.190Z,23.13
2023-02-17T08:44:36.427Z,21.10
2023-02-17T08:47:05.564Z,21.70
2023-02-17T08:49:32.984Z,21.20
2023-02-17T08:52:20.692Z,23.95
2023-02-17T08:55:01.284Z,22.92
2023-02-17T08:57:28.234Z,22.02
2023-02-17T08:59:55.151Z,27.52
2023-02-17T09:02:22.122Z,32.30
2023-02-17T09:04:49.060Z,29.55
2023-02-17T09:07:16.790Z,29.73
2023-02-17T09:09:44.477Z,32.60
2023-02-17T09:12:11.606Z,30.50
2023-02-17T09:14:38.876Z,30.25
2023-02-17T09:17:26.696Z,32.30
2023-02-17T09:20:24.016Z,30.08
2023-02-17T09:22:52.468Z,29.17
2023-02-17T09:25:19.823Z,27.08
2023-02-17T09:27:46.763Z,29.02
2023-02-17T09:30:14.256Z,26.65
2023-02-17T09:32:42.301Z,26.17
2023-02-17T09:35:30.707Z,25.65
2023-02-17T09:38:31.675Z,25.20
2023-02-17T09:41:28.044Z,25.35
2023-02-17T09:43:55.864Z,25.73
2023-02-17T09:46:26.449Z,24.35
2023-02-17T09:48:57.937Z,24.65
2023-02-17T09:51:33.810Z,22.60
2023-02-17T09:54:11.219Z,21.98
2023-02-17T09:56:41.436Z,21.80
2023-02-17T09:59:27.778Z,21.17
2023-02-17T10:01:57.100Z,20.20
2023-02-17T10:04:29.487Z,21.08
2023-02-17T10:07:25.659Z,20.58
2023-02-17T10:10:48.662Z,19.42
2023-02-17T10:13:34.249Z,18.48
2023-02-17T10:16:07.241Z,17.35
2023-02-17T10:19:00.682Z,19.53
2023-02-17T10:21:48.438Z,18.95
2023-02-17T10:24:15.528Z,18.70
2023-02-17T10:27:08.924Z,17.42
2023-02-17T10:29:50.972Z,16.98
2023-02-17T10:32:27.350Z,14.93
2023-02-17T10:35:23.388Z,16.83
2023-02-17T10:38:30.717Z,15.52
2023-02-17T10:41:16.046Z,17.73
2023-02-17T10:44:03.737Z,17.15
2023-02-17T10:46:58.845Z,16.55
2023-02-17T10:49:39.811Z,17.63
2023-02-17T10:52:14.441Z,17.38
2023-02-17T10:54:57.664Z,17.25
2023-02-17T10:57:27.060Z,16.55
2023-02-17T10:59:54.186Z,15.82
2023-02-17T11:02:51.664Z,13.32
2023-02-17T11:05:48.732Z,16.27
2023-02-17T11:08:31.553Z,16.83
2023-02-17T11:11:01.859Z,16.52
2023-02-17T11:13:43.922Z,16.38
2023-02-17T11:16:28.268Z,16.33
2023-02-17T11:22:18.745Z,15.98
2023-02-17T11:25:02.064Z,13.68
2023-02-17T11:27:29.200Z,16.50
2023-02-17T11:30:15.702Z,16.23
2023-02-17T11:32:42.788Z,16.70
2023-02-17T11:35:34.690Z,15.90
2023-02-17T11:38:39.757Z,17.25
2023-02-17T11:41:34.025Z,17.60
2023-02-17T11:44:01.092Z,19.77
2023-02-17T11:46:46.759Z,17.17
2023-02-17T11:49:36.497Z,16.88
2023-02-17T11:52:50.733Z,17.77
2023-02-17T11:55:52.829Z,18.10
2023-02-17T11:58:32.088Z,17.17
2023-02-17T12:01:02.173Z,16.20
2023-02-17T12:03:53.301Z,20.05
2023-02-17T12:07:13.703Z,20.50
2023-02-17T12:10:26.731Z,16.83
2023-02-17T12:13:07.389Z,19.10
2023-02-17T12:15:56.495Z,18.45
2023-02-17T12:19:09.734Z,19.10
2023-02-17T12:22:07.872Z,16.77
2023-02-17T12:24:45.227Z,19.13
2023-02-17T12:27:36.246Z,18.15
2023-02-17T12:30:11.117Z,17.13
2023-02-17T12:32:55.204Z,19.60
2023-02-17T12:35:32.680Z,15.75
2023-02-17T12:38:28.740Z,17.27
2023-02-17T12:41:49.740Z,16.60
2023-02-17T12:45:01.735Z,17.02
2023-02-17T12:47:57.243Z,15.38
2023-02-17T12:50:42.066Z,17.23
2023-02-17T12:53:51.769Z,16.17
2023-02-17T12:56:44.385Z,17.23
2023-02-17T12:59:15.961Z,16.75
2023-02-17T13:01:49.897Z,16.30
2023-02-17T13:04:38.758Z,14.88
2023-02-17T13:08:09.851Z,15.35
2023-02-17T13:11:04.412Z,15.13
2023-02-17T13:13:34.263Z,14.68
2023-02-17T13:16:14.941Z,14.75
2023-02-17T13:19:03.791Z,16.10
2023-02-17T13:21:56.374Z,15.30
2023-02-17T13:24:51.389Z,14.70
2023-02-17T13:27:39.861Z,14.77
2023-02-17T13:30:22.014Z,16.08
2023-02-17T13:33:06.374Z,15.98
2023-02-17T13:39:15.753Z,16.10
2023-02-17T13:42:19.458Z,17.98
2023-02-17T13:45:01.075Z,16.45
2023-02-17T13:47:31.211Z,17.10
2023-02-17T13:50:21.817Z,17.10
2023-02-17T13:53:40.853Z,16.53
2023-02-17T13:56:43.801Z,17.50
2023-02-17T13:59:44.816Z,18.23
2023-02-17T14:02:36.378Z,16.88
2023-02-17T14:05:17.440Z,18.40
2023-02-17T14:07:47.611Z,17.85
2023-02-17T14:10:25.067Z,17.35
2023-02-17T14:12:53.575Z,17.83
2023-02-17T14:15:24.697Z,18.30
2023-02-17T14:18:11.793Z,16.88
2023-02-17T14:21:37.865Z,17.55
2023-02-17T14:24:43.798Z,19.10
2023-02-17T14:27:24.611Z,18.95
2023-02-17T14:29:51.727Z,18.38
2023-02-17T14:32:37.626Z,16.98
2023-02-17T14:35:11.691Z,19.02
2023-02-17T14:37:58.803Z,20.27
2023-02-17T14:41:02.819Z,18.25
2023-02-17T14:44:03.845Z,18.60
2023-02-17T14:46:44.529Z,18.30
2023-02-17T14:49:31.861Z,19.77
2023-02-17T14:52:37.822Z,18.80
2023-02-17T14:55:46.870Z,18.25
2023-02-17T14:58:28.817Z,19.80
2023-02-17T15:00:56.162Z,21.02
2023-02-17T15:03:23.493Z,20.63
2023-02-17T15:06:10.842Z,21.00
2023-02-17T15:08:52.784Z,20.42
2023-02-17T15:11:34.582Z,19.35
2023-02-17T15:14:02.967Z,19.02
2023-02-17T15:16:30.790Z,21.38
2023-02-17T15:19:18.246Z,20.63
2023-02-17T15:22:03.769Z,22.25
2023-02-17T15:24:50.871Z,23.10
2023-02-17T15:27:31.407Z,20.70
2023-02-17T15:29:58.481Z,22.27
2023-02-17T15:32:25.453Z,22.02
2023-02-17T15:34:52.459Z,23.00
2023-02-17T15:37:39.854Z,21.95
2023-02-17T15:40:24.029Z,21.67
2023-02-17T15:42:55.880Z,23.13
2023-02-17T15:45:24.161Z,22.75
2023-02-17T15:47:56.783Z,23.77
2023-02-17T15:50:23.865Z,21.85
2023-02-17T15:52:51.008Z,22.05
2023-02-17T15:55:37.893Z,23.08
2023-02-17T15:58:38.883Z,23.38
2023-02-17T16:01:43.859Z,23.15
2023-02-17T16:04:24.487Z,23.98
2023-02-17T16:06:51.371Z,24.58
2023-02-17T16:09:20.736Z,24.27
2023-02-17T16:11:51.713Z,23.48
2023-02-17T16:14:33.448Z,25.58
2023-02-17T16:17:28.856Z,26.35
2023-02-17T16:20:32.496Z,24.52
2023-02-17T16:23:33.894Z,27.75
2023-02-17T16:26:45.033Z,26.90
2023-02-17T16:29:45.861Z,26.33
2023-02-17T16:32:19.281Z,28.38
2023-02-17T16:34:46.308Z,27.52
2023-02-17T16:37:33.877Z,26.90
2023-02-17T16:40:18.277Z,28.67
2023-02-17T16:42:45.260Z,27.85
2023-02-17T16:45:20.768Z,28.55
2023-02-17T16:47:50.306Z,31.92
2023-02-17T16:50:24.873Z,29.95
2023-02-17T16:52:57.056Z,27.95
2023-02-17T16:55:27.175Z,29.73
2023-02-17T16:57:54.118Z,27.77
2023-02-17T17:00:44.871Z,30.52
2023-02-17T17:03:45.944Z,30.48
2023-02-17T17:06:46.908Z,26.65
2023-02-17T17:09:30.734Z,27.85
2023-02-17T17:11:57.802Z,30.33
2023-02-17T17:14:25.150Z,29.08
2023-02-17T17:17:15.933Z,30.15
2023-02-17T17:20:20.058Z,31.80
2023-02-17T17:23:14.854Z,32.15
2023-02-17T17:25:49.722Z,31.63
2023-02-17T17:28:20.114Z,32.63
2023-02-17T17:31:07.915Z,30.77
2023-02-17T17:33:49.656Z,31.85
2023-02-17T17:36:36.934Z,29.38
2023-02-17T17:39:20.431Z,33.53
2023-02-17T17:41:48.237Z,32.00
2023-02-17T17:44:16.776Z,33.67
2023-02-17T17:46:44.450Z,31.77
2023-02-17T17:49:20.365Z,34.15
2023-02-17T17:51:47.349Z,34.33
2023-02-17T17:54:15.483Z,34.58
2023-02-17T17:56:43.347Z,33.35
2023-02-17T17:59:30.936Z,34.10
2023-02-17T18:02:11.529Z,34.28
2023-02-17T18:04:39.512Z,33.30
2023-02-17T18:07:06.705Z,41.17
2023-02-17T18:09:38.184Z,32.97
2023-02-17T18:12:14.663Z,39.22
2023-02-17T18:14:43.308Z,44.05
2023-02-17T18:17:29.959Z,47.00
2023-02-17T18:20:30.935Z,41.38
2023-02-17T18:23:26.194Z,41.20
2023-02-17T18:25:53.140Z,43.30
2023-02-17T18:28:20.172Z,43.55
2023-02-17T18:30:47.280Z,48.92
2023-02-17T18:33:14.722Z,45.35
2023-02-17T18:35:43.489Z,49.95
2023-02-17T18:38:30.944Z,47.38
2023-02-17T18:41:41.123Z,46.35
2023-02-17T18:44:27.959Z,48.10
2023-02-17T18:47:08.512Z,48.20
2023-02-17T18:49:35.380Z,47.30
2023-02-17T18:52:02.378Z,42.15
2023-02-17T18:54:29.345Z,45.30
2023-02-17T18:56:56.469Z,46.08
2023-02-17T18:59:23.366Z,45.28
2023-02-17T19:01:50.318Z,44.05
2023-02-17T19:04:36.964Z,50.47
2023-02-17T19:07:17.521Z,48.10
2023-02-17T19:09:44.587Z,46.78
2023-02-17T19:12:13.875Z,50.80
2023-02-17T19:14:41.784Z,42.47
2023-02-17T19:17:30.944Z,43.58
2023-02-17T19:20:32.059Z,43.10
2023-02-17T19:23:32.963Z,57.03
2023-02-17T19:26:34.975Z,43.58
2023-02-17T19:29:15.630Z,45.25
2023-02-17T19:31:42.693Z,45.42
2023-02-17T19:34:09.919Z,46.83
2023-02-17T19:36:36.842Z,43.38
2023-02-17T19:39:03.847Z,40.47
2023-02-17T19:41:30.822Z,41.08
2023-02-17T19:43:57.813Z,55.38
2023-02-17T19:46:25.863Z,48.45
2023-02-17T19:48:52.871Z,40.72
2023-02-17T19:51:39.995Z,42.75
2023-02-17T19:54:20.644Z,41.65
2023-02-17T19:56:55.977Z,42.40
2023-02-17T19:59:57.001Z,43.97
2023-02-17T20:02:31.791Z,48.58
2023-02-17T20:04:58.959Z,49.10
2023-02-17T20:07:46.012Z,48.92
2023-02-17T20:10:26.839Z,66.28
2023-02-17T20:12:53.824Z,51.92
2023-02-17T20:15:20.758Z,47.90
2023-02-17T20:18:07.962Z,52.97
2023-02-17T20:21:02.112Z,59.47
2023-02-17T20:23:43.212Z,56.53
2023-02-17T20:26:14.304Z,47.35
2023-02-17T20:28:41.402Z,49.80
2023-02-17T20:31:09.385Z,46.30
2023-02-17T20:33:57.005Z,43.42
2023-02-17T20:36:58.004Z,42.85
2023-02-17T20:39:59.011Z,52.30
2023-02-17T20:42:59.181Z,45.63
2023-02-17T20:45:46.036Z,46.35
2023-02-17T20:48:47.025Z,40.50
2023-02-17T20:51:48.024Z,40.55
2023-02-17T20:54:49.023Z,41.22
2023-02-17T20:57:29.580Z,39.72
2023-02-17T20:59:56.809Z,40.08
2023-02-17T21:02:24.080Z,44.22
2023-02-17T21:04:51.001Z,45.95
2023-02-17T21:07:38.034Z,42.70
2023-02-17T21:10:22.448Z,45.50
2023-02-17T21:12:50.136Z,43.33
2023-02-17T21:15:37.034Z,44.92
2023-02-17T21:18:38.080Z,42.25
2023-02-17T21:21:18.792Z,45.38
2023-02-17T21:23:46.146Z,53.92
2023-02-17T21:26:13.878Z,59.67
2023-02-17T21:29:01.043Z,54.10
2023-02-17T21:31:41.688Z,50.97
2023-02-17T21:34:09.162Z,46.30
2023-02-17T21:36:36.164Z,46.40
2023-02-17T21:39:04.349Z,49.13
2023-02-17T21:41:54.020Z,59.03
2023-02-17T21:45:01.056Z,51.20
2023-02-17T21:48:02.036Z,48.22
2023-02-17T21:51:04.080Z,46.95
2023-02-17T21:53:45.524Z,54.03
2023-02-17T21:56:12.419Z,54.63
2023-02-17T21:58:39.387Z,49.00
2023-02-17T22:01:08.133Z,48.53
2023-02-17T22:03:35.296Z,47.78
2023-02-17T22:06:43.162Z,49.45
2023-02-17T22:09:24.400Z,52.60
2023-02-17T22:11:51.554Z,56.60
2023-02-17T22:14:20.549Z,54.72
2023-02-17T22:16:48.563Z,53.22
2023-02-17T22:19:38.073Z,51.70
2023-02-17T22:22:18.734Z,48.90
2023-02-17T22:25:06.087Z,50.67
2023-02-17T22:28:08.655Z,49.20
2023-02-17T22:30:53.777Z,47.33
2023-02-17T22:33:20.771Z,52.97
2023-02-17T22:36:16.090Z,53.78
2023-02-17T22:38:56.832Z,55.30
2023-02-17T22:41:25.901Z,52.55
2023-02-17T22:44:14.077Z,49.53
2023-02-17T22:47:16.895Z,53.42
2023-02-17T22:50:14.756Z,51.15
2023-02-17T22:52:41.832Z,50.83
2023-02-17T22:55:09.124Z,52.83
2023-02-17T22:57:36.097Z,55.13
2023-02-17T23:00:23.078Z,55.03
2023-02-17T23:03:03.847Z,56.38
2023-02-17T23:05:51.070Z,48.25
2023-02-17T23:08:32.536Z,52.78
2023-02-17T23:11:03.389Z,48.97
2023-02-17T23:13:30.291Z,49.92
2023-02-17T23:15:57.350Z,50.75
2023-02-17T23:18:46.100Z,52.30
2023-02-17T23:21:47.152Z,42.97
2023-02-17T23:24:28.211Z,52.83
2023-02-17T23:27:18.202Z,50.15
2023-02-17T23:29:58.751Z,46.72
2023-02-17T23:32:25.634Z,47.78
2023-02-17T23:34:52.699Z,46.85
2023-02-17T23:37:19.544Z,48.03
2023-02-17T23:39:46.408Z,50.55
2023-02-17T23:42:13.313Z,44.50
2023-02-17T23:44:40.259Z,43.95
2023-02-17T23:47:27.141Z,40.92
2023-02-17T23:50:28.100Z,51.63
2023-02-17T23:53:09.292Z,44.40
2023-02-17T23:55:36.234Z,44.83
2023-02-17T23:58:03.237Z,42.00
